createdAt,value
2018-11-26T00:02:42.992Z,6.02
2018-11-26T00:07:47.579Z,5.98
2018-11-26T00:12:52.110Z,6.19
2018-11-26T00:18:15.485Z,6.24
2018-11-26T00:23:19.971Z,6.36
2018-11-26T00:28:24.505Z,6.36
2018-11-26T00:33:29.072Z,6.51
2018-11-26T00:38:33.627Z,6.43
2018-11-26T00:43:38.153Z,6.62
2018-11-26T00:48:42.668Z,6.48
2018-11-26T00:53:47.215Z,6.59
2018-11-26T00:59:10.676Z,6.71
2018-11-26T01:04:15.222Z,6.56
2018-11-26T01:09:19.775Z,6.79
2018-11-26T01:14:24.325Z,6.51
2018-11-26T01:19:28.857Z,6.78
2018-11-26T01:24:33.390Z,6.67
2018-11-26T01:29:37.908Z,6.83
2018-11-26T01:34:42.410Z,6.77
2018-11-26T01:39:46.967Z,6.71
2018-11-26T01:44:51.469Z,6.78
2018-11-26T01:49:56.002Z,6.67
2018-11-26T01:55:00.557Z,6.67
2018-11-26T02:00:24.856Z,6.83
2018-11-26T02:05:29.411Z,6.61
2018-11-26T02:10:33.915Z,6.76
2018-11-26T02:15:57.492Z,6.64
2018-11-26T02:21:02.009Z,6.88
2018-11-26T02:26:06.712Z,6.79
2018-11-26T02:31:11.229Z,6.65
2018-11-26T02:36:15.761Z,6.82
2018-11-26T02:41:20.303Z,6.71
2018-11-26T02:46:24.834Z,6.74
2018-11-26T02:51:29.393Z,6.68
2018-11-26T02:56:33.913Z,6.80
2018-11-26T03:01:38.399Z,6.87
2018-11-26T03:06:42.937Z,6.65
2018-11-26T03:11:47.542Z,6.81
2018-11-26T03:16:52.092Z,6.76
2018-11-26T03:21:56.633Z,6.70
2018-11-26T03:27:01.152Z,6.71
2018-11-26T03:32:05.687Z,6.44
2018-11-26T03:37:28.883Z,6.61
2018-11-26T03:42:33.470Z,6.62
2018-11-26T03:47:38.003Z,6.58
2018-11-26T03:52:43.678Z,6.55
2018-11-26T03:57:48.202Z,6.43
2018-11-26T04:02:52.763Z,6.79
2018-11-26T04:08:16.268Z,6.35
2018-11-26T04:13:20.842Z,6.47
2018-11-26T04:18:25.409Z,6.70
2018-11-26T04:23:29.959Z,6.72
2018-11-26T04:28:34.497Z,6.65
2018-11-26T04:33:39.015Z,6.65
2018-11-26T04:38:43.531Z,6.58
2018-11-26T04:43:48.157Z,6.34
2018-11-26T04:49:11.709Z,6.54
2018-11-26T04:54:16.302Z,6.36
2018-11-26T04:59:21.321Z,6.15
2018-11-26T05:04:25.814Z,6.04
2018-11-26T05:09:30.366Z,5.92
2018-11-26T05:14:34.919Z,5.86
2018-11-26T05:19:39.496Z,5.83
2018-11-26T05:24:44.033Z,5.84
2018-11-26T05:29:48.563Z,5.71
2018-11-26T05:34:53.199Z,5.67
2018-11-26T05:39:57.714Z,5.94
2018-11-26T05:45:02.308Z,5.98
2018-11-26T05:50:08.761Z,6.11
2018-11-26T05:55:14.435Z,5.84
2018-11-26T06:00:38.004Z,5.74
2018-11-26T06:05:42.505Z,5.58
2018-11-26T06:10:47.057Z,5.70
2018-11-26T06:15:51.578Z,5.77
2018-11-26T06:20:56.115Z,5.62
2018-11-26T06:26:00.606Z,5.75
2018-11-26T06:31:05.138Z,5.67
2018-11-26T06:36:09.651Z,5.33
2018-11-26T06:41:14.162Z,5.73
2018-11-26T06:46:37.399Z,5.86
2018-11-26T06:51:41.891Z,5.74
2018-11-26T06:56:46.425Z,5.63
2018-11-26T07:01:51.693Z,5.44
2018-11-26T07:06:55.506Z,5.39
2018-11-26T07:12:19.133Z,5.47
2018-11-26T07:17:23.704Z,5.35
2018-11-26T07:22:28.228Z,5.30
2018-11-26T07:27:32.738Z,5.39
2018-11-26T07:32:37.360Z,5.45
2018-11-26T07:37:41.923Z,5.36
2018-11-26T07:43:07.466Z,5.41
2018-11-26T07:48:12.907Z,5.31
2018-11-26T07:53:17.417Z,5.32
2018-11-26T07:58:21.947Z,5.27
2018-11-26T08:03:26.485Z,5.26
2018-11-26T08:08:31.017Z,5.27
2018-11-26T08:13:35.557Z,5.19
2018-11-26T08:18:40.175Z,5.14
2018-11-26T08:23:44.829Z,5.36
2018-11-26T08:28:49.441Z,5.12
2018-11-26T08:33:54.066Z,5.18
2018-11-26T08:39:37.107Z,5.16
2018-11-26T08:44:41.701Z,5.40
2018-11-26T08:49:46.216Z,5.04
2018-11-26T08:54:50.777Z,5.25
2018-11-26T08:59:55.315Z,5.38
2018-11-26T09:05:23.950Z,5.62
2018-11-26T09:10:23.422Z,5.27
2018-11-26T09:15:27.999Z,5.09
2018-11-26T09:20:32.518Z,5.23
2018-11-26T09:25:37.756Z,5.19
2018-11-26T09:30:41.587Z,5.51
2018-11-26T09:35:46.980Z,5.34
2018-11-26T09:40:51.486Z,5.17
2018-11-26T09:45:56.049Z,4.93
2018-11-26T09:51:00.590Z,4.89
2018-11-26T09:56:05.223Z,5.18
2018-11-26T10:01:09.729Z,4.93
2018-11-26T10:06:14.366Z,4.87
2018-11-26T10:11:18.977Z,5.00
2018-11-26T10:16:23.448Z,5.16
2018-11-26T10:21:27.953Z,5.23
2018-11-26T10:26:32.517Z,4.65
2018-11-26T10:31:37.175Z,4.83
2018-11-26T10:36:41.696Z,4.65
2018-11-26T10:41:46.263Z,5.11
2018-11-26T10:46:50.812Z,5.11
2018-11-26T10:51:55.344Z,5.19
2018-11-26T10:56:59.866Z,4.82
2018-11-26T11:02:23.101Z,5.17
2018-11-26T11:07:46.385Z,5.13
2018-11-26T11:13:09.718Z,5.39
2018-11-26T11:18:14.257Z,5.34
2018-11-26T11:23:18.902Z,5.49
2018-11-26T11:28:23.435Z,5.13
2018-11-26T11:33:28.043Z,5.18
2018-11-26T11:38:32.562Z,5.15
2018-11-26T11:43:37.133Z,5.23
2018-11-26T11:48:41.673Z,5.37
2018-11-26T11:53:46.237Z,5.38
2018-11-26T11:58:50.809Z,5.72
2018-11-26T12:03:55.404Z,5.52
2018-11-26T12:08:59.912Z,5.36
2018-11-26T12:14:04.501Z,5.37
2018-11-26T12:19:09.164Z,5.50
2018-11-26T12:24:14.555Z,5.51
2018-11-26T12:29:19.047Z,5.50
2018-11-26T12:34:24.033Z,5.35
2018-11-26T12:39:28.602Z,5.52
2018-11-26T12:44:52.168Z,5.21
2018-11-26T12:49:56.730Z,5.63
2018-11-26T12:55:01.210Z,5.30
2018-11-26T13:00:06.659Z,5.27
2018-11-26T13:05:31.069Z,5.23
2018-11-26T13:10:35.640Z,5.56
2018-11-26T13:15:40.189Z,5.47
2018-11-26T13:25:55.503Z,5.79
2018-11-26T13:31:00.052Z,5.51
2018-11-26T13:36:04.590Z,5.53
2018-11-26T13:41:09.170Z,5.42
2018-11-26T13:46:13.667Z,5.23
2018-11-26T13:51:18.232Z,5.50
2018-11-26T13:56:22.761Z,5.38
2018-11-26T14:01:27.405Z,5.37
2018-11-26T14:06:31.991Z,5.30
2018-11-26T14:11:36.594Z,4.97
2018-11-26T14:16:59.819Z,5.26
2018-11-26T14:22:04.407Z,4.97
2018-11-26T14:27:08.936Z,5.08
2018-11-26T14:32:13.416Z,4.96
2018-11-26T14:37:17.947Z,5.00
2018-11-26T14:42:22.490Z,4.62
2018-11-26T14:47:27.022Z,4.99
2018-11-26T14:52:31.570Z,5.09
2018-11-26T14:57:36.151Z,4.57
2018-11-26T15:02:41.011Z,4.91
2018-11-26T15:07:46.112Z,4.73
2018-11-26T15:12:50.685Z,4.65
2018-11-26T15:17:55.243Z,4.69
2018-11-26T15:33:53.847Z,4.48
2018-11-26T15:38:58.438Z,4.44
2018-11-26T15:44:02.956Z,4.35
2018-11-26T15:49:26.573Z,4.37
2018-11-26T16:00:06.031Z,4.56
2018-11-26T16:05:30.527Z,4.34
2018-11-26T16:10:35.868Z,4.55
2018-11-26T16:15:42.675Z,4.31
2018-11-26T16:20:48.047Z,4.60
2018-11-26T16:25:53.359Z,4.32
2018-11-26T16:41:34.786Z,4.14
2018-11-26T16:47:00.298Z,4.32
2018-11-26T16:52:05.800Z,4.32
2018-11-26T16:57:11.036Z,4.35
2018-11-26T17:02:16.724Z,4.40
2018-11-26T17:13:24.769Z,4.21
2018-11-26T17:18:49.997Z,4.49
2018-11-26T17:29:39.774Z,4.47
2018-11-26T17:40:16.150Z,4.56
2018-11-26T17:45:39.454Z,4.45
2018-11-26T17:50:45.239Z,4.53
2018-11-26T17:55:51.149Z,4.34
2018-11-26T18:01:16.010Z,4.60
2018-11-26T18:06:20.844Z,4.27
2018-11-26T18:11:25.394Z,4.47
2018-11-26T18:16:29.965Z,4.15
2018-11-26T18:21:34.583Z,4.12
2018-11-26T18:26:39.175Z,4.17
2018-11-26T18:31:43.820Z,4.53
2018-11-26T18:36:48.428Z,4.26
2018-11-26T18:41:53.202Z,4.07
2018-11-26T18:46:57.865Z,4.36
2018-11-26T18:52:02.612Z,4.18
2018-11-26T18:57:07.271Z,4.48
2018-11-26T19:02:11.900Z,4.34
2018-11-26T19:07:16.565Z,4.32
2018-11-26T19:12:21.084Z,4.15
2018-11-26T19:17:26.200Z,4.09
2018-11-26T19:22:30.655Z,4.44
2018-11-26T19:27:35.255Z,4.08
2018-11-26T19:32:39.875Z,4.16
2018-11-26T19:37:44.456Z,4.15
2018-11-26T19:42:49.267Z,4.12
2018-11-26T19:48:31.647Z,3.82
2018-11-26T19:53:36.308Z,3.86
2018-11-26T19:58:40.927Z,4.31
2018-11-26T20:04:23.491Z,4.09
2018-11-26T20:09:46.794Z,4.04
2018-11-26T20:14:51.611Z,4.13
2018-11-26T20:19:56.195Z,3.74
2018-11-26T20:25:19.825Z,3.79
2018-11-26T20:30:43.369Z,3.82
2018-11-26T20:36:07.198Z,3.59
2018-11-26T20:41:12.768Z,3.44
2018-11-26T20:46:17.462Z,3.52
2018-11-26T20:51:22.273Z,3.52
2018-11-26T20:56:27.352Z,3.26
2018-11-26T21:01:31.937Z,3.72
2018-11-26T21:06:36.652Z,3.56
2018-11-26T21:12:00.257Z,3.40
2018-11-26T21:17:24.016Z,3.29
2018-11-26T21:22:28.589Z,3.45
2018-11-26T21:27:52.703Z,3.46
2018-11-26T21:32:57.319Z,3.48
2018-11-26T21:38:01.845Z,3.48
2018-11-26T21:43:25.273Z,3.03
2018-11-26T21:48:30.217Z,3.28
2018-11-26T21:53:34.727Z,3.25
2018-11-26T21:58:39.288Z,3.32
2018-11-26T22:03:46.486Z,3.71
2018-11-26T22:09:10.494Z,3.27
2018-11-26T22:14:15.113Z,3.24
2018-11-26T22:19:19.740Z,3.33
2018-11-26T22:24:24.374Z,3.33
2018-11-26T22:29:28.967Z,3.25
2018-11-26T22:34:33.479Z,3.14
2018-11-26T22:39:57.254Z,2.89
2018-11-26T22:45:01.729Z,2.96
2018-11-26T22:50:09.244Z,3.11
2018-11-26T22:55:14.692Z,2.89
2018-11-26T23:00:47.964Z,2.82
2018-11-26T23:05:52.501Z,3.02
2018-11-26T23:10:57.079Z,2.90
2018-11-26T23:16:01.811Z,2.94
2018-11-26T23:21:06.554Z,2.80
2018-11-26T23:26:11.088Z,2.88
2018-11-26T23:31:15.709Z,2.85
2018-11-26T23:36:20.209Z,3.29
2018-11-26T23:41:25.387Z,3.28
2018-11-26T23:46:29.250Z,2.84
2018-11-26T23:51:33.830Z,2.83
2018-11-26T23:56:38.371Z,2.80
